Time;durP1;ratioP1;P1;durP2;ratioP2;P2;SDS_P1;SDS_P2;PMS_P1;PMS_P2;Temp;Humidity;BMP_temperature;BMP_pressure;BME280_temperature;BME280_humidity;BME280_pressure;Samples;Min_cycle;Max_cycle;Signal;HPM_P1;HPM_P2
2022/02/02 00:00:34;;;;;;;12.85;9.50;;;4.70;87.90;;;;;;1907112;75;21498;-44
2022/02/02 00:03:11;;;;;;;14.95;10.23;;;4.70;88.00;;;;;;1908515;75;21024;-44
2022/02/02 00:05:51;;;;;;;14.18;10.35;;;4.80;88.10;;;;;;1907641;75;21044;-43
2022/02/02 00:08:15;;;;;;;12.68;9.05;;;4.70;87.90;;;;;;1906559;75;21106;-43
2022/02/02 00:16:43;;;;;;;15.10;9.55;;;4.80;88.20;;;;;;1887856;75;21032;-43
2022/02/02 00:18:45;;;;;;;12.98;9.35;;;4.90;88.30;;;;;;1898547;74;21087;-44
2022/02/02 00:21:02;;;;;;;13.43;9.70;;;4.90;88.10;;;;;;1905165;75;21052;-43
2022/02/02 00:23:30;;;;;;;13.30;9.75;;;4.90;88.10;;;;;;1907162;75;21052;-44
2022/02/02 00:26:01;;;;;;;12.93;9.08;;;4.90;88.10;;;;;;1907962;75;21114;-43
2022/02/02 00:28:30;;;;;;;13.30;9.83;;;4.90;88.20;;;;;;1907906;75;21087;-44
2022/02/02 00:31:01;;;;;;;13.83;9.18;;;4.90;87.80;;;;;;1908180;75;21004;-43
2022/02/02 00:33:32;;;;;;;13.68;9.23;;;4.90;87.90;;;;;;1908299;75;21498;-43
2022/02/02 00:36:05;;;;;;;13.88;8.73;;;4.90;88.00;;;;;;1908283;75;21561;-43
2022/02/02 00:38:29;;;;;;;14.35;9.55;;;4.90;87.90;;;;;;1907998;74;21036;-45
2022/02/02 00:40:58;;;;;;;13.05;10.58;;;4.90;87.80;;;;;;1908594;75;21028;-43
2022/02/02 00:43:28;;;;;;;13.13;9.55;;;4.90;87.80;;;;;;1908673;75;21004;-43
2022/02/02 00:45:57;;;;;;;16.02;11.30;;;4.90;87.90;;;;;;1908609;75;21083;-43
2022/02/02 00:48:28;;;;;;;16.02;10.40;;;4.90;88.20;;;;;;1908397;75;21008;-43
2022/02/02 00:50:57;;;;;;;17.20;11.57;;;4.90;88.20;;;;;;1908567;75;21051;-43
2022/02/02 00:53:26;;;;;;;14.70;10.25;;;5.00;88.30;;;;;;1908405;75;21004;-43
2022/02/02 00:55:56;;;;;;;14.35;9.80;;;5.00;87.70;;;;;;1908484;75;21042;-43
2022/02/02 00:58:26;;;;;;;14.80;11.18;;;5.00;87.60;;;;;;1908503;74;21127;-43
2022/02/02 01:00:55;;;;;;;15.78;10.65;;;4.90;87.90;;;;;;1908579;75;21115;-43
2022/02/02 01:03:25;;;;;;;13.05;10.35;;;4.90;88.00;;;;;;1908530;75;21025;-44
2022/02/02 01:05:54;;;;;;;15.23;10.93;;;4.90;88.10;;;;;;1908399;75;21028;-43
2022/02/02 01:08:45;;;;;;;11.88;8.90;;;4.90;88.10;;;;;;1908535;75;21122;-43
2022/02/02 01:11:30;;;;;;;14.05;11.08;;;4.90;88.00;;;;;;1905983;75;21114;-44
2022/02/02 01:19:03;;;;;;;14.80;10.32;;;5.00;88.30;;;;;;1908612;75;21447;-43
2022/02/02 01:21:56;;;;;;;15.95;10.93;;;5.00;88.20;;;;;;1908420;75;21087;-43
2022/02/02 01:29:40;;;;;;;13.75;9.75;;;5.20;88.20;;;;;;1908536;75;21036;-42
2022/02/02 01:32:09;;;;;;;15.20;10.40;;;5.20;88.20;;;;;;1908553;75;21101;-43
2022/02/02 01:34:38;;;;;;;15.18;11.15;;;5.20;88.00;;;;;;1908462;75;21521;-43
2022/02/02 01:37:07;;;;;;;14.70;9.73;;;5.30;88.10;;;;;;1908439;75;21033;-44
2022/02/02 01:39:38;;;;;;;12.98;9.13;;;5.30;87.90;;;;;;1908500;75;21008;-44
2022/02/02 01:42:11;;;;;;;13.93;10.25;;;5.30;87.90;;;;;;1908465;75;21098;-44
2022/02/02 01:45:02;;;;;;;13.18;10.55;;;5.20;87.70;;;;;;1908406;75;21052;-43
2022/02/02 01:47:28;;;;;;;15.50;10.45;;;5.20;87.80;;;;;;1906310;75;21105;-44
2022/02/02 01:55:08;;;;;;;16.57;11.40;;;5.10;87.80;;;;;;1908709;75;21110;-44
2022/02/02 01:57:58;;;;;;;16.70;9.93;;;5.00;87.80;;;;;;1908448;75;21056;-44
2022/02/02 02:00:13;;;;;;;11.05;8.05;;;4.90;88.30;;;;;;1905739;75;21549;-43
2022/02/02 02:02:44;;;;;;;15.13;9.15;;;5.00;88.70;;;;;;1908451;75;21574;-44
2022/02/02 02:05:13;;;;;;;14.28;8.60;;;5.00;88.70;;;;;;1908407;75;21075;-43
2022/02/02 02:07:43;;;;;;;13.25;9.23;;;5.00;88.40;;;;;;1908396;75;21025;-43
2022/02/02 02:10:12;;;;;;;13.83;9.50;;;5.00;88.60;;;;;;1908524;75;21008;-44
2022/02/02 02:12:54;;;;;;;10.82;8.28;;;5.10;88.70;;;;;;1908452;75;21032;-44
2022/02/02 02:15:17;;;;;;;14.33;9.40;;;5.10;88.90;;;;;;1907219;75;21106;-43
2022/02/02 02:17:46;;;;;;;15.35;8.93;;;5.30;89.30;;;;;;1908639;75;21459;-43
2022/02/02 02:20:16;;;;;;;15.78;9.20;;;5.40;89.40;;;;;;1908494;75;21005;-44
2022/02/02 02:22:45;;;;;;;13.50;9.38;;;5.40;90.00;;;;;;1908564;75;21078;-44
2022/02/02 02:25:20;;;;;;;13.90;9.35;;;5.50;88.90;;;;;;1908554;75;21028;-44
2022/02/02 02:27:51;;;;;;;22.80;12.85;;;5.50;88.80;;;;;;1908074;75;21098;-44
2022/02/02 02:36:23;;;;;;;21.57;11.68;;;5.60;88.60;;;;;;1908651;75;21119;-43
2022/02/02 02:58:02;;;;;;;15.18;9.55;;;5.80;88.60;;;;;;1908578;75;21056;-44
2022/02/02 03:30:39;;;;;;;14.35;8.63;;;6.30;88.60;;;;;;1908603;75;21012;-45
2022/02/02 03:34:40;;;;;;;12.58;7.85;;;6.30;88.60;;;;;;1907133;75;21009;-43
2022/02/02 03:49:54;;;;;;;45.28;22.02;;;6.30;88.90;;;;;;1914646;75;21040;-42
2022/02/02 03:52:59;;;;;;;41.23;20.72;;;6.30;88.40;;;;;;1911522;75;21048;-43
2022/02/02 03:55:22;;;;;;;28.40;17.27;;;6.30;88.50;;;;;;1909527;75;21125;-45
2022/02/02 04:05:51;;;;;;;18.35;12.18;;;6.20;88.40;;;;;;1924793;74;21085;-44
2022/02/02 04:10:57;;;;;;;23.07;13.40;;;6.20;88.50;;;;;;1924700;74;21063;-44
2022/02/02 04:14:04;;;;;;;20.60;13.10;;;6.20;88.50;;;;;;1924827;74;21047;-44
2022/02/02 04:54:59;;;;;;;14.63;9.30;;;6.50;87.90;;;;;;1924916;74;21105;-44
2022/02/02 04:57:50;;;;;;;13.83;7.95;;;6.50;87.80;;;;;;1922646;74;21089;-45
2022/02/02 05:00:40;;;;;;;20.15;8.83;;;6.50;87.60;;;;;;1920625;74;21059;-44
2022/02/02 05:05:31;;;;;;;13.20;7.75;;;6.50;87.60;;;;;;1903446;74;21580;-45
2022/02/02 05:07:52;;;;;;;24.85;13.30;;;6.60;87.80;;;;;;1920401;74;21091;-44
2022/02/02 05:10:28;;;;;;;23.45;12.82;;;6.60;87.90;;;;;;1923257;74;21063;-43
2022/02/02 05:18:30;;;;;;;21.37;12.58;;;6.60;87.70;;;;;;1890340;74;21027;-44
2022/02/02 05:51:13;;;;;;;19.90;10.32;;;6.80;87.70;;;;;;1924529;74;21020;-44
2022/02/02 05:53:32;;;;;;;22.25;12.33;;;6.80;87.70;;;;;;1922436;74;21317;-44
2022/02/02 05:56:03;;;;;;;22.20;13.38;;;6.80;87.40;;;;;;1924696;74;21083;-44
2022/02/02 05:58:37;;;;;;;18.80;11.88;;;6.80;87.40;;;;;;1924733;74;21043;-44
2022/02/02 06:01:07;;;;;;;51.30;24.70;;;6.80;87.50;;;;;;1924637;74;21111;-43
2022/02/02 06:03:54;;;;;;;21.45;12.28;;;6.80;87.50;;;;;;1923847;74;21446;-44
2022/02/02 06:06:25;;;;;;;13.75;8.33;;;6.90;87.60;;;;;;1924628;74;21024;-44
2022/02/02 06:08:56;;;;;;;10.48;5.78;;;6.90;87.50;;;;;;1924585;74;21055;-44
2022/02/02 06:11:27;;;;;;;11.20;5.58;;;6.90;87.20;;;;;;1924739;74;21141;-44
2022/02/02 06:13:58;;;;;;;7.83;4.95;;;7.00;87.40;;;;;;1924666;74;21101;-45
2022/02/02 06:16:29;;;;;;;8.93;5.53;;;7.10;86.20;;;;;;1924804;74;21097;-44
2022/02/02 06:19:01;;;;;;;8.73;4.80;;;7.20;86.70;;;;;;1924671;74;21458;-46
2022/02/02 06:21:32;;;;;;;8.10;5.67;;;7.30;86.40;;;;;;1924858;74;21048;-44
2022/02/02 06:24:12;;;;;;;10.03;5.70;;;7.40;86.10;;;;;;1924548;74;21032;-44
2022/02/02 06:26:44;;;;;;;6.30;4.37;;;7.40;86.00;;;;;;1924641;74;21090;-44
2022/02/02 06:29:15;;;;;;;9.98;5.20;;;7.50;85.80;;;;;;1924438;74;21031;-48
2022/02/02 06:31:44;;;;;;;10.18;5.10;;;7.60;85.90;;;;;;1924580;74;21027;-45
2022/02/02 06:34:15;;;;;;;9.95;5.50;;;7.60;85.90;;;;;;1924630;74;21107;-44
2022/02/02 06:36:47;;;;;;;9.35;5.55;;;7.70;86.00;;;;;;1924602;74;21102;-46
2022/02/02 06:39:15;;;;;;;13.98;5.03;;;7.70;86.10;;;;;;1924791;74;21059;-45
2022/02/02 06:41:44;;;;;;;7.95;5.08;;;7.80;86.00;;;;;;1924575;74;21371;-45
2022/02/02 06:44:15;;;;;;;7.95;4.55;;;7.80;86.00;;;;;;1924739;74;21156;-46
2022/02/02 06:46:46;;;;;;;10.82;4.83;;;7.80;86.00;;;;;;1924565;74;21036;-45
2022/02/02 06:49:15;;;;;;;11.12;5.67;;;7.90;86.00;;;;;;1924798;74;21450;-44
2022/02/02 06:52:00;;;;;;;13.90;5.92;;;7.90;86.10;;;;;;1924753;74;21094;-45
2022/02/02 06:54:41;;;;;;;10.30;5.85;;;7.90;86.30;;;;;;1923784;74;21119;-46
2022/02/02 06:57:13;;;;;;;7.95;4.05;;;7.90;86.30;;;;;;1921852;74;21414;-44
2022/02/02 07:00:00;;;;;;;10.80;4.67;;;7.90;86.40;;;;;;1924277;74;21170;-47
2022/02/02 07:05:28;;;;;;;11.15;6.78;;;7.90;86.30;;;;;;1924912;74;21043;-46
2022/02/02 07:16:38;;;;;;;10.98;6.05;;;7.90;86.60;;;;;;1924958;74;21023;-44
2022/02/02 07:24:35;;;;;;;8.80;5.22;;;7.80;87.40;;;;;;1924919;74;21060;-44
2022/02/02 07:32:30;;;;;;;10.40;7.55;;;7.80;88.60;;;;;;1924810;74;21047;-44
2022/02/02 07:35:19;;;;;;;10.13;5.30;;;7.80;88.80;;;;;;1923752;74;21470;-44
2022/02/02 07:37:55;;;;;;;10.90;5.17;;;7.80;88.60;;;;;;1923722;74;21047;-45
2022/02/02 07:40:26;;;;;;;8.45;5.08;;;7.80;88.70;;;;;;1924585;74;21105;-44
2022/02/02 07:42:57;;;;;;;9.85;5.00;;;7.80;89.40;;;;;;1851609;77;21418;-45
2022/02/02 07:45:27;;;;;;;6.62;3.27;;;7.80;89.20;;;;;;1852974;77;21528;-43
2022/02/02 07:48:01;;;;;;;9.98;6.08;;;7.90;89.70;;;;;;1885493;76;21159;-44
2022/02/02 07:50:34;;;;;;;6.03;3.63;;;7.90;89.40;;;;;;1851772;77;21097;-44
2022/02/02 07:53:10;;;;;;;5.50;3.65;;;8.00;89.30;;;;;;1852714;77;21065;-47
2022/02/02 07:55:35;;;;;;;10.50;4.50;;;8.00;89.50;;;;;;1884216;76;21129;-44
2022/02/02 07:58:06;;;;;;;4.60;4.00;;;8.00;89.20;;;;;;1884798;75;21029;-45
2022/02/02 08:00:36;;;;;;;6.92;3.67;;;8.00;89.30;;;;;;1884484;75;21084;-44
2022/02/02 08:03:09;;;;;;;7.60;4.45;;;8.10;89.60;;;;;;1870643;76;21081;-44
2022/02/02 08:05:45;;;;;;;6.12;3.75;;;8.10;89.40;;;;;;1868095;76;21038;-45
2022/02/02 08:10:51;;;;;;;7.05;4.60;;;8.10;90.00;;;;;;1868203;76;21085;-46
2022/02/02 08:13:38;;;;;;;7.90;4.58;;;;;;;;;;1868287;77;21436;-44
2022/02/02 08:15:57;;;;;;;5.92;3.98;;;;;;;;;;1865313;75;21469;-48
2022/02/02 08:18:20;;;;;;;7.47;4.45;;;;;;;;;;1867623;75;21026;-44
2022/02/02 08:20:49;;;;;;;10.32;5.03;;;;;;;;;;1832886;77;21093;-45
2022/02/02 08:23:17;;;;;;;6.65;3.77;;;;;;;;;;1783942;79;21050;-46
2022/02/02 08:25:46;;;;;;;6.05;4.12;;;;;;;;;;1783078;80;21126;-46
2022/02/02 08:28:16;;;;;;;4.85;4.28;;;;;;;;;;1814051;79;21102;-45
2022/02/02 08:30:46;;;;;;;7.83;4.83;;;;;;;;;;1784241;79;21148;-46
2022/02/02 08:33:19;;;;;;;7.35;4.12;;;;;;;;;;1813788;77;21062;-44
2022/02/02 08:35:50;;;;;;;6.67;4.47;;;;;;;;;;1783726;80;21602;-46
2022/02/02 08:41:08;;;;;;;9.33;5.15;;;;;;;;;;1813785;77;21066;-48
2022/02/02 08:43:39;;;;;;;7.67;4.78;;;;;;;;;;1783323;79;21129;-45
2022/02/02 08:46:07;;;;;;;10.40;5.47;;;;;;;;;;1782322;80;21050;-47
2022/02/02 08:48:32;;;;;;;8.68;4.72;;;;;;;;;;1813788;78;21086;-45
2022/02/02 08:51:08;;;;;;;6.00;4.10;;;;;;;;;;1784065;80;21106;-46
2022/02/02 08:53:50;;;;;;;6.87;4.33;;;;;;;;;;1811558;79;21523;-47
2022/02/02 08:56:36;;;;;;;7.03;4.78;;;;;;;;;;1809848;78;21357;-47
2022/02/02 08:58:50;;;;;;;9.20;5.47;;;;;;;;;;1781054;80;21184;-46
2022/02/02 09:01:28;;;;;;;9.03;4.65;;;;;;;;;;1813753;78;21681;-46
2022/02/02 09:06:37;;;;;;;9.53;4.72;;;;;;;;;;1884046;76;21054;-45
2022/02/02 09:09:44;;;;;;;7.28;4.42;;;;;;;;;;1884032;76;21046;-46
2022/02/02 09:25:34;;;;;;;6.05;3.72;;;;;;;;;;1884036;76;21053;-48
2022/02/02 09:35:58;;;;;;;7.97;6.37;;;;;;;;;;1884149;76;21113;-47
2022/02/02 09:38:26;;;;;;;10.48;5.15;;;;;;;;;;1884159;76;21050;-47
2022/02/02 09:41:40;;;;;;;6.97;4.97;;;;;;;;;;1884037;76;21085;-46
2022/02/02 09:43:30;;;;;;;4.47;3.25;;;;;;;;;;1869692;75;21504;-46
2022/02/02 09:46:05;;;;;;;7.62;5.03;;;;;;;;;;1903148;75;21047;-47
2022/02/02 09:48:41;;;;;;;9.43;4.80;;;;;;;;;;1902329;75;21489;-49
2022/02/02 09:51:07;;;;;;;10.58;5.83;;;;;;;;;;1901566;75;22094;-46
2022/02/02 09:53:40;;;;;;;10.00;5.97;;;;;;;;;;1902192;75;21081;-48
2022/02/02 09:56:35;;;;;;;5.85;3.60;;;;;;;;;;1902524;75;21070;-50
2022/02/02 10:04:46;;;;;;;5.08;4.00;;;;;;;;;;1909775;75;21632;-49
2022/02/02 10:06:58;;;;;;;5.80;4.40;;;;;;;;;;1896425;75;21096;-48
2022/02/02 10:09:28;;;;;;;6.53;4.97;;;;;;;;;;1907459;75;21578;-49
2022/02/02 10:12:06;;;;;;;8.58;4.67;;;;;;;;;;1907911;75;21614;-51
2022/02/02 10:14:29;;;;;;;5.75;4.87;;;;;;;;;;1905150;75;21535;-50
2022/02/02 10:16:57;;;;;;;8.88;5.50;;;;;;;;;;1909532;75;21555;-50
2022/02/02 10:19:27;;;;;;;7.72;4.80;;;;;;;;;;1909518;75;21050;-47
2022/02/02 10:21:58;;;;;;;9.10;5.35;;;;;;;;;;1909670;75;21078;-45
2022/02/02 10:24:45;;;;;;;7.53;5.70;;;;;;;;;;1909448;75;21074;-47
2022/02/02 10:27:32;;;;;;;8.68;5.55;;;;;;;;;;1909616;75;21481;-47
2022/02/02 10:30:07;;;;;;;10.78;5.12;;;;;;;;;;1909210;75;21058;-46
2022/02/02 10:32:43;;;;;;;7.92;5.22;;;;;;;;;;1909480;75;21114;-46
2022/02/02 10:35:13;;;;;;;4.80;3.67;;;;;;;;;;1909587;75;21485;-46
2022/02/02 10:37:48;;;;;;;13.88;5.95;;;;;;;;;;1906008;75;21027;-47
2022/02/02 10:40:12;;;;;;;6.78;4.85;;;;;;;;;;1908298;75;21614;-47
2022/02/02 10:42:43;;;;;;;7.45;4.50;;;;;;;;;;1909532;75;21043;-45
2022/02/02 10:45:19;;;;;;;7.25;4.67;;;;;;;;;;1909698;75;21552;-47
2022/02/02 10:47:50;;;;;;;9.43;5.15;;;;;;;;;;1909791;75;21417;-49
2022/02/02 10:50:24;;;;;;;4.50;2.35;;;;;;;;;;1909615;75;21532;-47
2022/02/02 10:54:04;;;;;;;4.03;2.90;;;;;;;;;;1908554;75;21554;-46
2022/02/02 10:56:00;;;;;;;4.78;3.72;;;;;;;;;;1867920;75;21525;-48
2022/02/02 11:01:06;;;;;;;8.48;4.37;;;;;;;;;;1909442;75;21070;-48
2022/02/02 11:08:54;;;;;;;6.37;3.67;;;;;;;;;;1875525;76;21509;-48
2022/02/02 11:11:23;;;;;;;4.35;2.95;;;;;;;;;;1875478;76;21045;-48
2022/02/02 11:13:53;;;;;;;5.53;3.35;;;;;;;;;;1875298;76;21156;-48
2022/02/02 11:16:23;;;;;;;4.40;3.40;;;;;;;;;;1875282;76;21085;-47
2022/02/02 11:18:53;;;;;;;5.05;2.45;;;;;;;;;;1875588;76;21102;-48
2022/02/02 11:21:23;;;;;;;5.45;2.85;;;;;;;;;;1875275;76;21093;-48
2022/02/02 11:23:55;;;;;;;5.70;3.30;;;;;;;;;;1874440;76;21089;-50
2022/02/02 11:26:40;;;;;;;4.45;2.77;;;;;;;;;;1875246;76;21101;-45
2022/02/02 11:29:10;;;;;;;9.28;3.40;;;;;;;;;;1875510;76;21062;-46
2022/02/02 11:31:56;;;;;;;7.00;3.58;;;;;;;;;;1875570;76;21042;-47
2022/02/02 11:34:25;;;;;;;3.90;3.08;;;;;;;;;;1875673;76;21039;-46
2022/02/02 11:36:57;;;;;;;6.47;3.45;;;;;;;;;;1876261;76;21112;-47
2022/02/02 11:39:36;;;;;;;7.05;3.37;;;;;;;;;;1876232;76;21090;-45
2022/02/02 11:42:19;;;;;;;4.53;2.83;;;;;;;;;;1876284;76;21469;-47
2022/02/02 11:44:55;;;;;;;4.87;3.67;;;;;;;;;;1873918;76;21031;-46
2022/02/02 11:49:57;;;;;;;4.87;3.27;;;;;;;;;;1876169;76;21031;-45
2022/02/02 11:52:35;;;;;;;5.05;3.65;;;;;;;;;;1875998;76;21199;-45
2022/02/02 11:55:05;;;;;;;6.30;3.42;;;;;;;;;;1876255;76;21160;-47
2022/02/02 11:57:38;;;;;;;5.58;3.92;;;;;;;;;;1872296;76;21039;-46
2022/02/02 12:06:14;;;;;;;6.28;4.35;;;;;;;;;;1876137;76;21129;-47
2022/02/02 12:08:40;;;;;;;6.08;3.85;;;;;;;;;;1873724;76;21062;-45
2022/02/02 12:11:25;;;;;;;5.65;2.40;;;;;;;;;;1874965;76;21500;-46
2022/02/02 12:28:08;;;;;;;4.83;3.50;;;;;;;;;;1876097;76;21049;-46
2022/02/02 12:44:55;;;;;;;4.03;3.12;;;;;;;;;;1876033;76;21058;-48
2022/02/02 13:00:21;;;;;;;7.83;3.62;;;;;;;;;;1876211;76;21063;-45
2022/02/02 13:02:45;;;;;;;3.12;2.83;;;;;;;;;;1875168;76;21489;-46
2022/02/02 13:05:15;;;;;;;3.37;2.47;;;;;;;;;;1875529;76;21066;-47
2022/02/02 13:07:44;;;;;;;3.30;2.75;;;;;;;;;;1875433;76;21032;-44
2022/02/02 13:10:15;;;;;;;9.23;3.30;;;;;;;;;;1875456;76;21058;-47
2022/02/02 13:12:54;;;;;;;5.67;3.15;;;;;;;;;;1875349;76;21497;-46
2022/02/02 13:15:29;;;;;;;4.70;3.15;;;;;;;;;;1874302;76;21117;-44
2022/02/02 13:18:22;;;;;;;5.27;4.17;;;;;;;;;;1873984;76;21031;-45
2022/02/02 13:26:44;;;;;;;7.78;3.95;;;;;;;;;;1875429;76;21030;-44
2022/02/02 13:29:18;;;;;;;6.58;3.77;;;;;;;;;;1874636;76;21097;-45
2022/02/02 13:34:24;;;;;;;6.87;3.83;;;;;;;;;;1875510;76;21438;-45
2022/02/02 13:37:01;;;;;;;7.03;4.65;;;;;;;;;;1874218;76;21080;-45
2022/02/02 13:48:27;;;;;;;7.72;4.30;;;;;;;;;;1875442;76;21153;-44
2022/02/02 13:58:48;;;;;;;6.87;3.98;;;;;;;;;;1875603;76;21557;-47
2022/02/02 14:01:24;;;;;;;4.72;3.08;;;;;;;;;;1874131;76;21505;-44
2022/02/02 14:06:41;;;;;;;6.58;3.87;;;;;;;;;;1856219;77;21504;-46
2022/02/02 14:09:13;;;;;;;5.47;2.98;;;;;;;;;;1854146;77;21566;-46
2022/02/02 14:31:06;;;;;;;4.92;3.92;;;;;;;;;;1856083;77;21065;-46
2022/02/02 14:31:14;;;;;;;5.12;3.90;;;;;;;;;;1856120;77;21070;-44
2022/02/02 14:33:42;;;;;;;5.08;3.75;;;;;;;;;;1856139;77;21534;-47
2022/02/02 14:36:14;;;;;;;5.12;3.67;;;;;;;;;;1856194;77;21046;-45
2022/02/02 14:38:51;;;;;;;5.70;4.20;;;;;;;;;;1856342;77;21456;-44
2022/02/02 14:44:01;;;;;;;6.75;3.92;;;;;;;;;;1856084;77;21074;-44
2022/02/02 14:46:39;;;;;;;7.92;4.58;;;;;;;;;;1855115;77;21106;-44
2022/02/02 14:49:09;;;;;;;5.67;4.60;;;;;;;;;;1855268;77;21101;-45
2022/02/02 14:51:54;;;;;;;7.80;4.65;;;;;;;;;;1855582;77;21531;-44
2022/02/02 14:54:26;;;;;;;6.92;3.85;;;;;;;;;;1848550;77;21453;-44
2022/02/02 15:29:45;;;;;;;13.15;9.55;;;;;;;;;;1876110;76;21094;-48
2022/02/02 15:31:59;;;;;;;4.92;3.72;;;;;;;;;;1870146;76;21555;-45
2022/02/02 15:34:36;;;;;;;6.72;4.75;;;;;;;;;;1876071;76;21050;-45
2022/02/02 15:37:21;;;;;;;5.78;4.67;;;;;;;;;;1874635;76;21638;-44
2022/02/02 15:39:37;;;;;;;11.97;4.60;;;;;;;;;;1871924;76;21500;-44
2022/02/02 15:42:57;;;;;;;7.42;4.47;;;;;;;;;;1875805;76;21486;-45
2022/02/02 15:56:37;;;;;;;6.45;4.87;;;;;;;;;;1876162;76;21031;-45
2022/02/02 15:58:26;;;;;;;7.55;4.22;;;;;;;;;;1872048;76;21544;-46
2022/02/02 16:03:31;;;;;;;6.50;4.00;;;;;;;;;;1876123;76;21524;-44
2022/02/02 16:05:59;;;;;;;4.97;4.22;;;;;;;;;;1873903;76;21067;-45
2022/02/02 16:08:26;;;;;;;7.87;4.60;;;;;;;;;;1874622;76;21551;-47
2022/02/02 16:13:39;;;;;;;8.50;4.25;;;;;;;;;;1875603;76;21517;-46
2022/02/02 16:16:14;;;;;;;6.80;4.03;;;;;;;;;;1873349;76;21575;-46
2022/02/02 16:32:56;;;;;;;6.70;3.90;;;;;;;;;;1875410;76;21031;-45
2022/02/02 16:35:16;;;;;;;6.70;3.27;;;;;;;;;;1870255;76;21532;-45
2022/02/02 16:37:38;;;;;;;5.97;4.03;;;;;;;;;;1871698;76;21572;-45
2022/02/02 16:40:04;;;;;;;6.42;3.83;;;;;;;;;;1872460;76;21509;-48
2022/02/02 16:45:18;;;;;;;7.83;3.62;;;;;;;;;;1875457;76;21055;-45
2022/02/02 16:47:46;;;;;;;5.42;3.77;;;;;;;;;;1875503;76;21113;-46
2022/02/02 16:50:19;;;;;;;8.08;3.70;;;;;;;;;;1875754;76;21047;-47
2022/02/02 16:52:48;;;;;;;4.90;4.40;;;;;;;;;;1875064;76;21109;-46
2022/02/02 16:55:29;;;;;;;7.65;3.95;;;;;;;;;;1875670;76;21671;-46
2022/02/02 16:58:01;;;;;;;8.15;3.95;;;;;;;;;;1872502;76;21039;-44
2022/02/02 17:30:45;;;;;;;9.38;5.65;;;;;;;;;;1876380;76;21454;-45
2022/02/02 17:33:21;;;;;;;11.70;6.22;;;;;;;;;;1875576;76;21058;-45
2022/02/02 17:38:38;;;;;;;8.53;6.20;;;;;;;;;;1876156;76;21035;-45
2022/02/02 17:41:08;;;;;;;9.20;5.67;;;;;;;;;;1869701;76;21485;-45
2022/02/02 17:58:11;;;;;;;4.62;3.40;;;;;;;;;;1876106;76;21066;-45
2022/02/02 18:03:21;;;;;;;3.83;2.98;;;;;;;;;;1874528;76;21049;-44
2022/02/02 18:16:42;;;;;;;5.28;3.00;;;;;;;;;;1875603;76;21117;-45
2022/02/02 18:21:14;;;;;;;6.85;2.55;;;;;;;;;;1875624;76;21477;-48
2022/02/02 18:23:59;;;;;;;6.47;2.62;;;;;;;;;;1875550;76;21466;-45
2022/02/02 18:26:34;;;;;;;3.65;3.25;;;;;;;;;;1873793;76;21559;-45
2022/02/02 18:34:25;;;;;;;5.08;3.37;;;;;;;;;;1875490;76;21496;-45
2022/02/02 18:51:36;;;;;;;3.75;3.33;;;;;;;;;;1875538;76;21055;-45
2022/02/02 18:58:42;;;;;;;5.92;3.77;;;;;;;;;;1875851;76;21535;-44
2022/02/02 19:04:15;;;;;;;3.42;3.10;;;;;;;;;;1875623;76;21054;-46
2022/02/02 19:31:05;;;;;;;4.78;3.17;;;;;;;;;;1818438;76;21059;-44
2022/02/02 19:56:40;;;;;;;3.45;2.75;;;;;;;;;;1875569;76;21063;-47
2022/02/02 20:04:37;;;;;;;4.55;2.50;;;;;;;;;;1875812;76;21528;-44
2022/02/02 20:12:19;;;;;;;4.97;2.77;;;;;;;;;;1875715;76;21521;-44
2022/02/02 20:14:47;;;;;;;3.87;2.58;;;;;;;;;;1875666;76;21477;-46
2022/02/02 20:17:18;;;;;;;3.47;2.52;;;;;;;;;;1875806;76;21045;-43
2022/02/02 20:19:52;;;;;;;5.67;3.12;;;;;;;;;;1875588;76;21551;-46
2022/02/02 20:22:21;;;;;;;3.15;2.50;;;;;;;;;;1874541;76;21481;-45
2022/02/02 20:24:58;;;;;;;4.37;2.58;;;;;;;;;;1875589;76;21496;-44
2022/02/02 20:27:22;;;;;;;5.22;2.75;;;;;;;;;;1872842;76;21492;-44
2022/02/02 20:29:50;;;;;;;4.58;2.72;;;;;;;;;;1875551;76;21047;-44
2022/02/02 20:32:19;;;;;;;3.72;2.72;;;;;;;;;;1875677;76;21011;-44
2022/02/02 20:34:48;;;;;;;2.80;2.00;;;;;;;;;;1875557;76;21501;-43
2022/02/02 20:37:18;;;;;;;12.58;4.40;;;;;;;;;;1875673;76;21041;-45
2022/02/02 20:40:06;;;;;;;6.92;3.92;;;;;;;;;;1875601;76;21117;-45
2022/02/02 20:42:43;;;;;;;4.15;3.05;;;;;;;;;;1875154;76;21063;-43
2022/02/02 21:04:26;;;;;;;6.30;3.77;;;;;;;;;;1781531;76;21453;-46
2022/02/02 21:13:39;;;;;;;8.15;3.42;;;;;;;;;;1875702;76;21157;-44
2022/02/02 21:14:23;;;;;;;4.28;2.77;;;;;;;;;;1870418;76;21485;-44
2022/02/02 21:16:50;;;;;;;5.58;2.95;;;;;;;;;;1875323;76;21543;-44
2022/02/02 21:19:35;;;;;;;5.08;3.62;;;;;;;;;;1875839;76;21016;-45
2022/02/02 21:22:00;;;;;;;6.33;3.70;;;;;;;;;;1873513;76;21062;-44
2022/02/02 21:29:27;;;;;;;3.90;3.05;;;;;;;;;;1875659;76;21486;-44
2022/02/02 21:31:56;;;;;;;4.75;3.05;;;;;;;;;;1875687;76;21116;-44
2022/02/02 21:34:25;;;;;;;3.60;2.12;;;;;;;;;;1875635;76;21190;-45
2022/02/02 21:36:55;;;;;;;3.17;2.72;;;;;;;;;;1875763;76;21058;-47
2022/02/02 21:39:25;;;;;;;3.27;2.55;;;;;;;;;;1875748;76;21501;-44
2022/02/02 21:41:54;;;;;;;5.58;2.52;;;;;;;;;;1875702;76;21108;-47
2022/02/02 21:44:23;;;;;;;4.90;2.35;;;;;;;;;;1875673;76;21096;-43
2022/02/02 21:46:53;;;;;;;3.87;2.52;;;;;;;;;;1875650;76;21118;-45
2022/02/02 21:49:24;;;;;;;5.72;2.42;;;;;;;;;;1875672;76;21097;-44
2022/02/02 21:51:58;;;;;;;3.40;2.75;;;;;;;;;;1875809;76;21551;-43
2022/02/02 21:54:22;;;;;;;4.00;3.05;;;;;;;;;;1874632;76;21481;-43
2022/02/02 21:56:51;;;;;;;4.55;2.92;;;;;;;;;;1875609;76;21055;-44
2022/02/02 21:59:20;;;;;;;3.77;2.60;;;;;;;;;;1875727;76;21047;-44
2022/02/02 22:01:48;;;;;;;3.33;2.20;;;;;;;;;;1875720;76;21090;-44
2022/02/02 22:04:17;;;;;;;3.52;2.95;;;;;;;;;;1875654;76;21034;-45
2022/02/02 22:06:45;;;;;;;3.50;2.87;;;;;;;;;;1875727;76;21043;-43
2022/02/02 22:09:14;;;;;;;6.00;2.87;;;;;;;;;;1875591;76;21110;-43
2022/02/02 22:11:43;;;;;;;7.72;3.37;;;;;;;;;;1875648;76;21103;-44
2022/02/02 22:14:17;;;;;;;6.78;3.12;;;;;;;;;;1875595;76;21085;-44
2022/02/02 22:16:44;;;;;;;5.55;3.67;;;;;;;;;;1874800;76;21558;-44
2022/02/02 22:19:12;;;;;;;5.87;3.10;;;;;;;;;;1875712;76;21477;-46
2022/02/02 22:21:41;;;;;;;4.97;2.27;;;;;;;;;;1875729;76;21081;-44
2022/02/02 22:24:11;;;;;;;4.80;3.45;;;;;;;;;;1875620;76;21027;-44
2022/02/02 22:26:40;;;;;;;7.62;3.00;;;;;;;;;;1875590;76;21097;-44
2022/02/02 22:29:08;;;;;;;4.20;2.87;;;;;;;;;;1875697;76;21136;-43
2022/02/02 22:31:37;;;;;;;5.47;3.10;;;;;;;;;;1875693;76;21113;-43
2022/02/02 22:34:06;;;;;;;5.37;3.40;;;;;;;;;;1875822;76;21325;-45
2022/02/02 22:36:35;;;;;;;3.40;2.90;;;;;;;;;;1875794;76;21122;-46
2022/02/02 22:39:04;;;;;;;5.45;2.45;;;;;;;;;;1875790;76;21031;-43
2022/02/02 22:41:33;;;;;;;4.55;2.58;;;;;;;;;;1875827;76;21101;-43
2022/02/02 22:44:07;;;;;;;6.65;3.77;;;;;;;;;;1875823;76;21059;-44
2022/02/02 22:46:34;;;;;;;4.85;2.90;;;;;;;;;;1874680;76;21520;-43
2022/02/02 22:49:02;;;;;;;4.15;2.62;;;;;;;;;;1875702;76;21477;-44
2022/02/02 22:51:31;;;;;;;6.55;3.27;;;;;;;;;;1875666;76;21043;-44
2022/02/02 22:54:01;;;;;;;4.80;3.27;;;;;;;;;;1875757;76;21048;-44
2022/02/02 22:56:29;;;;;;;5.15;2.80;;;;;;;;;;1875698;76;21106;-44
2022/02/02 22:58:58;;;;;;;5.28;3.25;;;;;;;;;;1875697;76;21050;-44
2022/02/02 23:01:28;;;;;;;5.17;3.00;;;;;;;;;;1875683;76;21042;-45
2022/02/02 23:03:58;;;;;;;4.83;3.00;;;;;;;;;;1875708;76;21042;-44
2022/02/02 23:06:27;;;;;;;6.95;3.50;;;;;;;;;;1875719;76;21055;-44
2022/02/02 23:08:57;;;;;;;6.30;2.80;;;;;;;;;;1875625;76;21132;-45
2022/02/02 23:11:26;;;;;;;5.33;2.47;;;;;;;;;;1875737;76;21102;-44
2022/02/02 23:13:55;;;;;;;5.12;2.98;;;;;;;;;;1875671;76;21043;-43
2022/02/02 23:16:30;;;;;;;5.75;2.85;;;;;;;;;;1875563;76;21141;-44
2022/02/02 23:18:54;;;;;;;9.23;3.85;;;;;;;;;;1874350;76;21039;-44
2022/02/02 23:21:24;;;;;;;7.47;3.00;;;;;;;;;;1875624;76;21046;-46
2022/02/02 23:23:54;;;;;;;5.85;2.90;;;;;;;;;;1875600;76;21104;-43
2022/02/02 23:26:24;;;;;;;5.65;2.98;;;;;;;;;;1874854;76;21171;-44
2022/02/02 23:28:54;;;;;;;4.37;3.15;;;;;;;;;;1875703;76;21035;-45
2022/02/02 23:31:23;;;;;;;5.85;4.08;;;;;;;;;;1875542;76;21031;-44
2022/02/02 23:33:52;;;;;;;5.78;3.15;;;;;;;;;;1875712;76;21039;-45
2022/02/02 23:36:21;;;;;;;8.35;3.35;;;;;;;;;;1875581;76;21027;-43
2022/02/02 23:38:50;;;;;;;4.05;2.70;;;;;;;;;;1875660;76;21108;-44
2022/02/02 23:43:53;;;;;;;5.08;3.02;;;;;;;;;;1875790;76;21054;-44
2022/02/02 23:46:27;;;;;;;8.40;3.52;;;;;;;;;;1875577;76;21126;-43
2022/02/02 23:49:00;;;;;;;5.85;2.70;;;;;;;;;;1875586;76;21042;-43
2022/02/02 23:51:32;;;;;;;5.30;2.70;;;;;;;;;;1875546;76;21011;-47
2022/02/02 23:54:00;;;;;;;13.13;3.75;;;;;;;;;;1875541;76;21552;-46
2022/02/02 23:56:43;;;;;;;5.20;3.37;;;;;;;;;;1875566;76;21048;-43
2022/02/02 23:59:06;;;;;;;4.08;2.90;;;;;;;;;;1873272;76;21547;-45
